createdAt,value
2018-05-10T00:01:23.904Z,12.02
2018-05-10T00:07:24.597Z,11.18
2018-05-10T00:11:25.304Z,11.05
2018-05-10T00:13:26.015Z,12.54
2018-05-10T00:17:26.678Z,11.68
2018-05-10T00:23:32.066Z,12.07
2018-05-10T00:27:33.013Z,11.52
2018-05-10T00:33:33.751Z,12.6
2018-05-10T00:37:34.348Z,12.69
2018-05-10T00:39:34.967Z,12.49
2018-05-10T00:43:35.999Z,11.38
2018-05-10T00:49:36.785Z,11.69
2018-05-10T00:53:37.517Z,11.16
2018-05-10T00:59:38.302Z,14.32
2018-05-10T01:03:39.115Z,12.46
2018-05-10T01:05:39.804Z,16.66
2018-05-10T01:09:40.710Z,11.04
2018-05-10T01:15:41.467Z,11.09
2018-05-10T01:19:42.157Z,11.18
2018-05-10T01:25:43.011Z,14.1
2018-05-10T01:29:43.855Z,14.38
2018-05-10T01:31:44.671Z,13.07
2018-05-10T01:35:45.342Z,13.45
2018-05-10T01:41:46.159Z,12.03
2018-05-10T01:45:46.920Z,11.16
2018-05-10T01:51:47.663Z,12.24
2018-05-10T01:55:48.384Z,11.83
2018-05-10T01:57:49.077Z,14.45
2018-05-10T02:01:49.949Z,13.94
2018-05-10T02:07:50.620Z,11.58
2018-05-10T02:11:51.476Z,11.87
2018-05-10T02:17:52.174Z,12.34
2018-05-10T02:21:52.907Z,10.74
2018-05-10T02:23:53.714Z,10.19
2018-05-10T02:27:54.397Z,11.16
2018-05-10T02:33:55.078Z,10.34
2018-05-10T02:37:55.701Z,11.18
2018-05-10T02:43:56.418Z,11.73
2018-05-10T02:47:57.133Z,10.6
2018-05-10T02:49:57.790Z,10.62
2018-05-10T02:53:58.584Z,12.97
2018-05-10T02:59:59.471Z,11.24
2018-05-10T03:04:00.294Z,11.48
2018-05-10T03:10:01.058Z,11.35
2018-05-10T03:14:01.793Z,11.4
2018-05-10T03:16:02.427Z,11.65
2018-05-10T03:20:03.153Z,11.63
2018-05-10T03:26:03.978Z,12.69
2018-05-10T03:30:04.659Z,13.35
2018-05-10T03:36:05.495Z,14.69
2018-05-10T03:40:06.265Z,15.45
2018-05-10T03:42:06.941Z,15.2
2018-05-10T03:46:07.676Z,13.74
2018-05-10T03:52:08.559Z,18.31
2018-05-10T03:56:09.236Z,18.08
2018-05-10T04:02:09.976Z,20.9
2018-05-10T04:06:10.726Z,19.51
2018-05-10T04:08:11.479Z,18.5
2018-05-10T04:12:12.104Z,18.8
2018-05-10T04:18:12.836Z,15.48
2018-05-10T04:22:13.596Z,13.9
2018-05-10T04:28:14.259Z,14.71
2018-05-10T04:34:15.028Z,14.33
2018-05-10T04:38:15.798Z,13.94
2018-05-10T04:44:16.478Z,14.52
2018-05-10T04:48:17.196Z,12.94
2018-05-10T04:54:18.059Z,14.69
2018-05-10T05:00:19.190Z,14.19
2018-05-10T05:04:19.930Z,13.78
2018-05-10T05:10:20.690Z,16.67
2018-05-10T05:14:21.459Z,16.46
2018-05-10T05:20:22.159Z,16.64
2018-05-10T05:26:22.980Z,17.47
2018-05-10T05:30:23.883Z,16.34
2018-05-10T05:36:24.588Z,16.21
2018-05-10T05:40:25.278Z,15.64
2018-05-10T05:46:26.138Z,16.35
2018-05-10T05:52:26.892Z,16.79
2018-05-10T05:56:27.731Z,17.02
2018-05-10T06:02:28.308Z,18.86
2018-05-10T06:06:29.034Z,17.29
2018-05-10T06:12:29.812Z,16.87
2018-05-10T06:18:30.688Z,18.07
2018-05-10T06:22:31.402Z,17.1
2018-05-10T06:28:32.151Z,18.2
2018-05-10T06:32:32.841Z,19.07
2018-05-10T06:38:33.577Z,19.89
2018-05-10T06:44:34.316Z,17.12
2018-05-10T06:48:35.050Z,16.24
2018-05-10T06:54:35.912Z,17.36
2018-05-10T06:58:37.355Z,17.9
2018-05-10T07:04:38.330Z,19.86
2018-05-10T07:10:39.136Z,21.26
2018-05-10T07:14:39.931Z,21.98
2018-05-10T07:20:40.700Z,21.82
2018-05-10T07:24:41.406Z,21.21
2018-05-10T07:26:42.118Z,22.55
2018-05-10T07:30:42.883Z,22.69
2018-05-10T07:36:43.656Z,30.39
2018-05-10T07:40:44.377Z,31.16
2018-05-10T07:46:45.109Z,24.51
2018-05-10T07:50:45.919Z,26.34
2018-05-10T07:52:46.588Z,26.77
2018-05-10T07:56:47.368Z,27.68
2018-05-10T08:02:48.087Z,29.32
2018-05-10T08:06:48.865Z,27.2
2018-05-10T08:12:49.665Z,25.39
2018-05-10T08:16:50.655Z,27.34
2018-05-10T08:18:51.358Z,25.79
2018-05-10T08:22:52.172Z,24.99
2018-05-10T08:28:52.897Z,27.63
2018-05-10T08:32:53.686Z,25.8
2018-05-10T08:38:54.420Z,24.66
2018-05-10T08:42:55.168Z,24.67
2018-05-10T08:44:55.849Z,24.95
2018-05-10T08:48:56.674Z,23.93
2018-05-10T08:54:57.498Z,24.14
2018-05-10T08:58:58.198Z,22.43
2018-05-10T09:04:58.976Z,21.17
2018-05-10T09:08:59.754Z,19.96
2018-05-10T09:11:00.566Z,30.79
2018-05-10T09:15:01.312Z,22.23
2018-05-10T09:21:02.051Z,21.65
2018-05-10T09:25:02.783Z,24.41
2018-05-10T09:31:03.637Z,12.46
2018-05-10T09:35:04.408Z,11.43
2018-05-10T09:37:05.100Z,13.53
2018-05-10T09:41:05.937Z,9.99
2018-05-10T09:47:06.680Z,13.5
2018-05-10T09:51:07.517Z,13.6
2018-05-10T09:57:08.122Z,13.53
2018-05-10T10:01:08.878Z,12.93
2018-05-10T10:03:09.599Z,12.89
2018-05-10T10:07:10.361Z,13.03
2018-05-10T10:13:11.115Z,13.58
2018-05-10T10:17:11.861Z,12.53
2018-05-10T10:23:12.640Z,13.57
2018-05-10T10:27:13.300Z,9.81
2018-05-10T10:29:14.006Z,8.98
2018-05-10T10:33:14.631Z,9.11
2018-05-10T10:39:15.329Z,9.45
2018-05-10T10:43:20.735Z,8.75
2018-05-10T10:49:21.792Z,11.15
2018-05-10T10:53:22.512Z,12.1
2018-05-10T10:55:23.376Z,10.73
2018-05-10T10:59:24.249Z,10.23
2018-05-10T11:05:25.065Z,11.45
2018-05-10T11:09:25.796Z,11.67
2018-05-10T11:15:27.006Z,12.35
2018-05-10T11:19:27.701Z,10.55
2018-05-10T11:21:28.409Z,10.99
2018-05-10T11:25:29.228Z,10.25
2018-05-10T11:31:30.234Z,13.11
2018-05-10T11:35:31.093Z,10.81
2018-05-10T11:41:31.713Z,9.73
2018-05-10T11:45:33.145Z,9.11
2018-05-10T11:47:33.846Z,9.85
2018-05-10T11:51:34.635Z,9.69
2018-05-10T11:57:35.441Z,10.02
2018-05-10T12:01:36.182Z,9.03
2018-05-10T12:07:36.979Z,9.26
2018-05-10T12:11:37.636Z,8.29
2018-05-10T12:13:38.327Z,8.83
2018-05-10T12:17:39.179Z,8.98
2018-05-10T12:23:39.921Z,9.89
2018-05-10T12:27:40.855Z,9.64
2018-05-10T12:33:41.563Z,9.85
2018-05-10T12:37:42.270Z,8.48
2018-05-10T12:39:42.945Z,8
2018-05-10T12:43:43.702Z,8.52
2018-05-10T12:49:44.482Z,9.26
2018-05-10T12:53:45.382Z,8.76
2018-05-10T12:59:46.068Z,8.04
2018-05-10T13:03:46.759Z,8.46
2018-05-10T13:05:47.388Z,7.63
2018-05-10T13:09:48.115Z,7.18
2018-05-10T13:15:48.820Z,7.9
2018-05-10T13:19:49.511Z,8
2018-05-10T13:25:50.245Z,7.51
2018-05-10T13:31:51.081Z,8.9
2018-05-10T13:35:51.789Z,7.9
2018-05-10T13:41:52.711Z,8.12
2018-05-10T13:45:53.376Z,8.75
2018-05-10T13:51:54.174Z,9.34
2018-05-10T13:57:55.020Z,10.27
2018-05-10T14:01:55.730Z,9.13
2018-05-10T14:07:56.456Z,9.59
2018-05-10T14:11:57.332Z,8.68
2018-05-10T14:17:58.012Z,10.08
2018-05-10T14:23:58.751Z,10.42
2018-05-10T14:27:59.479Z,9.24
2018-05-10T14:34:00.201Z,9.97
2018-05-10T14:38:01.010Z,10.81
2018-05-10T14:44:01.738Z,8.36
2018-05-10T14:50:02.605Z,7.16
2018-05-10T14:54:03.442Z,6.21
2018-05-10T15:00:04.978Z,7.75
2018-05-10T15:04:04.949Z,7.79
2018-05-10T15:10:05.571Z,7.92
2018-05-10T15:16:06.342Z,7.47
2018-05-10T15:20:07.209Z,7.75
2018-05-10T15:26:07.890Z,8.71
2018-05-10T15:30:08.839Z,8.39
2018-05-10T15:32:09.258Z,9.74
2018-05-10T15:36:10.119Z,9.09
2018-05-10T15:42:10.876Z,8.35
2018-05-10T15:46:11.616Z,7.82
2018-05-10T15:52:12.297Z,8.95
2018-05-10T15:56:13.091Z,8.73
2018-05-10T15:58:13.824Z,11.76
2018-05-10T16:02:14.669Z,11.99
2018-05-10T16:08:15.390Z,13.32
2018-05-10T16:12:16.529Z,13.89
2018-05-10T16:18:17.227Z,9.21
2018-05-10T16:22:18.308Z,10.17
2018-05-10T16:24:19.086Z,9.98
2018-05-10T16:28:19.807Z,8.26
2018-05-10T16:34:20.556Z,8.66
2018-05-10T16:38:21.448Z,7.2
2018-05-10T16:44:22.227Z,9.33
2018-05-10T16:48:22.953Z,10.32
2018-05-10T16:50:23.638Z,20.54
2018-05-10T16:54:24.309Z,19.77
2018-05-10T17:00:25.382Z,20.5
2018-05-10T17:04:26.132Z,17.36
2018-05-10T17:10:26.835Z,11.15
2018-05-10T17:14:27.656Z,9.85
2018-05-10T17:16:28.299Z,12.42
2018-05-10T17:20:29.126Z,13.13
2018-05-10T17:26:29.803Z,12.57
2018-05-10T17:30:30.626Z,10.15
2018-05-10T17:36:31.353Z,9.94
2018-05-10T17:40:32.091Z,10.5
2018-05-10T17:42:32.843Z,9.47
2018-05-10T17:46:33.646Z,9.62
2018-05-10T17:52:34.346Z,9.55
2018-05-10T17:56:35.233Z,9.75
2018-05-10T18:02:36.833Z,12.6
2018-05-10T18:06:37.610Z,12.21
2018-05-10T18:08:39.222Z,10.01
2018-05-10T18:12:41.315Z,9.87
2018-05-10T18:18:45.655Z,17.99
2018-05-10T18:22:46.503Z,17.34
2018-05-10T18:28:47.497Z,22.32
2018-05-10T18:32:48.509Z,24.79
2018-05-10T18:34:49.200Z,19.55
2018-05-10T18:38:53.799Z,24.07
2018-05-10T18:44:54.573Z,19.61
2018-05-10T18:48:55.659Z,19.8
2018-05-10T18:54:57.326Z,18.34
2018-05-10T18:58:57.909Z,17.67
2018-05-10T19:00:58.663Z,18.42
2018-05-10T19:04:59.472Z,18.68
2018-05-10T19:11:00.328Z,20.02
2018-05-10T19:15:02.451Z,22.18
2018-05-10T19:21:03.217Z,16.85
2018-05-10T19:25:03.980Z,18.03
2018-05-10T19:27:04.812Z,20.32
2018-05-10T19:31:05.519Z,21.21
2018-05-10T19:37:06.362Z,24.12
2018-05-10T19:41:07.078Z,23.77
2018-05-10T19:47:07.928Z,18.36
2018-05-10T19:51:08.615Z,17.61
2018-05-10T19:53:09.284Z,18.52
2018-05-10T19:57:10.112Z,18.7
2018-05-10T20:03:10.852Z,16.47
2018-05-10T20:07:11.664Z,15.08
2018-05-10T20:13:12.475Z,12.83
2018-05-10T20:17:13.254Z,14.05
2018-05-10T20:19:14.003Z,13.57
2018-05-10T20:23:14.787Z,13.41
2018-05-10T20:29:15.504Z,17
2018-05-10T20:33:16.350Z,17.44
2018-05-10T20:39:17.102Z,14.39
2018-05-10T20:45:18.195Z,18.81
2018-05-10T20:49:19.037Z,17.81
2018-05-10T20:55:19.892Z,17.56
2018-05-10T20:59:20.705Z,17.24
2018-05-10T21:01:21.328Z,14.97
2018-05-10T21:05:22.112Z,15.14
2018-05-10T21:11:22.960Z,14.18
2018-05-10T21:15:23.986Z,13.98
2018-05-10T21:21:24.742Z,15.04
2018-05-10T21:25:25.513Z,14.81
2018-05-10T21:27:26.233Z,15.8
2018-05-10T21:31:27.002Z,14.86
2018-05-10T21:37:27.823Z,18.38
2018-05-10T21:41:28.470Z,17.86
2018-05-10T21:47:29.195Z,17.5
2018-05-10T21:53:30.036Z,20.97
2018-05-10T21:57:30.754Z,20.08
2018-05-10T22:03:31.446Z,18.84
2018-05-10T22:07:32.200Z,18.26
2018-05-10T22:09:32.998Z,20.02
2018-05-10T22:13:33.751Z,18.4
2018-05-10T22:19:34.575Z,20.12
2018-05-10T22:23:35.436Z,20.09
2018-05-10T22:29:36.091Z,22.49
2018-05-10T22:35:36.878Z,21.84
2018-05-10T22:39:37.491Z,21.23
2018-05-10T22:45:38.308Z,21.34
2018-05-10T22:49:38.924Z,20.74
2018-05-10T22:51:39.586Z,20.5
2018-05-10T22:55:40.313Z,20.96
2018-05-10T23:01:41.154Z,21.73
2018-05-10T23:05:42.003Z,21.01
2018-05-10T23:11:42.851Z,23.59
2018-05-10T23:15:43.591Z,22.38
2018-05-10T23:17:44.285Z,20.26
2018-05-10T23:21:45.033Z,18.97
2018-05-10T23:27:45.803Z,18.15
2018-05-10T23:31:46.459Z,15.96
2018-05-10T23:37:47.281Z,16.7
2018-05-10T23:43:48.205Z,16.57
2018-05-10T23:47:49.996Z,15.95
2018-05-10T23:53:50.771Z,17.43
2018-05-10T23:57:51.413Z,17.01
2018-05-10T23:59:52.138Z,16.24
